Time;durP1;ratioP1;P1;durP2;ratioP2;P2;SDS_P1;SDS_P2;PMS_P1;PMS_P2;Temp;Humidity;BMP_temperature;BMP_pressure;BME280_temperature;BME280_humidity;BME280_pressure;Samples;Min_cycle;Max_cycle;Signal;HPM_P1;HPM_P2
2022/08/18 00:01:14;;;;;;;;;36.40;32.00;;;;;27.91;52.74;98408.53;6263550;27;96869;-56
2022/08/18 00:04:20;;;;;;;;;33.80;30.80;;;;;27.87;52.85;98413.16;6240701;27;97340;-58
2022/08/18 00:07:38;;;;;;;;;28.40;27.40;;;;;27.84;52.54;98419.41;6239306;27;97582;-55
2022/08/18 00:10:49;;;;;;;;;37.60;33.00;;;;;27.82;53.07;98418.94;6234457;27;97116;-55
2022/08/18 00:13:52;;;;;;;;;34.00;31.00;;;;;27.84;52.96;98421.38;6238069;27;97487;-56
2022/08/18 00:16:56;;;;;;;;;36.00;32.00;;;;;27.80;52.94;98424.03;6238346;28;96752;-58
2022/08/18 00:20:01;;;;;;;;;34.00;31.00;;;;;27.63;52.78;98420.66;6248436;27;97371;-56
2022/08/18 00:23:04;;;;;;;;;39.00;32.60;;;;;27.73;52.67;98409.94;6245525;27;97929;-59
2022/08/18 00:26:08;;;;;;;;;35.00;32.00;;;;;27.72;52.78;98418.59;6237141;28;97101;-57
2022/08/18 00:29:11;;;;;;;;;34.00;32.00;;;;;27.66;52.54;98404.16;6238276;27;97558;-56
2022/08/18 00:32:15;;;;;;;;;33.40;30.40;;;;;27.64;52.51;98417.56;6237664;27;97054;-59
2022/08/18 00:35:25;;;;;;;;;33.50;31.00;;;;;27.56;52.98;98410.19;6237500;28;97339;-56
2022/08/18 00:38:31;;;;;;;;;38.00;33.00;;;;;27.59;53.32;98420.53;6238288;27;97413;-57
2022/08/18 00:41:34;;;;;;;;;34.80;32.20;;;;;27.56;53.10;98424.03;6237416;28;96909;-57
2022/08/18 00:44:38;;;;;;;;;36.00;32.00;;;;;27.54;52.66;98440.97;6237795;27;97498;-57
2022/08/18 00:47:41;;;;;;;;;37.00;32.00;;;;;27.54;53.11;98431.84;6238035;27;97401;-59
2022/08/18 00:50:51;;;;;;;;;28.33;28.00;;;;;27.52;53.15;98423.88;6237675;27;96867;-56
2022/08/18 00:54:00;;;;;;;;;32.20;30.00;;;;;27.49;53.43;98419.03;6238180;27;96839;-58
2022/08/18 00:57:07;;;;;;;;;33.00;30.00;;;;;27.45;53.18;98409.78;6238096;27;97565;-58
2022/08/18 01:00:12;;;;;;;;;36.00;32.00;;;;;27.41;53.32;98411.63;6237923;28;96828;-56
2022/08/18 01:03:18;;;;;;;;;40.40;33.00;;;;;27.37;53.85;98407.09;6236501;28;97300;-58
2022/08/18 01:06:32;;;;;;;;;36.00;32.00;;;;;27.33;53.85;98404.22;6213206;28;96870;-57
2022/08/18 01:09:36;;;;;;;;;34.00;30.00;;;;;27.31;53.19;98401.00;6237762;28;97178;-57
2022/08/18 01:12:39;;;;;;;;;32.50;30.00;;;;;27.30;53.63;98404.09;6241250;27;96664;-60
2022/08/18 01:15:51;;;;;;;;;35.00;30.00;;;;;27.30;53.87;98406.84;6237717;27;97215;-57
2022/08/18 01:22:22;;;;;;;;;33.80;29.00;;;;;27.24;54.19;98411.00;6237818;27;96611;-57
2022/08/18 01:28:49;;;;;;;;;36.00;32.40;;;;;27.16;54.37;98404.41;6237191;28;97217;-57
2022/08/18 01:31:54;;;;;;;;;41.40;35.00;;;;;27.14;54.96;98396.44;6236842;28;96993;-57
2022/08/18 01:34:59;;;;;;;;;40.50;35.00;;;;;27.15;55.16;98391.72;6218254;28;97452;-56
2022/08/18 01:38:03;;;;;;;;;39.00;33.00;;;;;27.13;54.82;98394.00;6237597;27;97004;-59
2022/08/18 01:41:07;;;;;;;;;40.00;33.50;;;;;27.10;54.79;98389.97;6236457;27;97030;-57
2022/08/18 01:44:32;;;;;;;;;37.75;34.75;;;;;27.10;54.38;98394.72;6237858;27;97016;-57
2022/08/18 01:47:36;;;;;;;;;34.50;32.00;;;;;27.08;55.06;98381.19;6236185;27;97671;-57
2022/08/18 01:50:52;;;;;;;;;43.00;35.00;;;;;27.07;54.89;98387.88;6237428;27;97198;-56
2022/08/18 01:53:57;;;;;;;;;38.20;34.20;;;;;27.07;55.01;98392.63;6238268;27;98807;-59
2022/08/18 01:57:02;;;;;;;;;35.50;32.00;;;;;27.07;55.15;98390.66;6236072;27;96884;-57
2022/08/18 02:00:07;;;;;;;;;36.25;33.00;;;;;27.10;55.45;98398.28;6237145;27;96816;-56
2022/08/18 02:03:14;;;;;;;;;28.80;25.80;;;;;27.10;55.67;98403.00;6221944;28;97077;-57
2022/08/18 02:06:19;;;;;;;;;38.00;33.00;;;;;27.10;55.20;98392.75;6234102;27;96698;-56
2022/08/18 02:09:37;;;;;;;;;41.60;36.00;;;;;27.11;55.26;98394.38;6225687;28;97020;-58
2022/08/18 02:12:42;;;;;;;;;36.20;32.60;;;;;27.09;54.99;98385.59;6244588;27;99137;-59
2022/08/18 02:15:46;;;;;;;;;36.00;33.00;;;;;27.08;54.68;98386.75;6242092;27;97832;-58
2022/08/18 02:18:49;;;;;;;;;38.60;34.00;;;;;27.07;54.76;98389.88;6242193;27;96474;-57
2022/08/18 02:21:53;;;;;;;;;38.40;33.00;;;;;27.05;54.91;98383.84;6240583;28;97078;-56
2022/08/18 02:24:57;;;;;;;;;40.00;35.00;;;;;27.03;55.00;98384.19;6239662;27;97326;-56
2022/08/18 02:28:02;;;;;;;;;36.00;32.40;;;;;27.04;55.04;98379.47;6243527;27;98030;-58
2022/08/18 02:31:08;;;;;;;;;36.00;33.20;;;;;26.77;54.80;98341.34;6255605;27;96872;-59
2022/08/18 02:34:14;;;;;;;;;39.60;33.60;;;;;26.99;54.89;98377.72;6252521;27;96914;-56
2022/08/18 02:37:18;;;;;;;;;38.00;34.00;;;;;26.97;55.30;98382.00;6244991;27;97860;-57
2022/08/18 02:40:21;;;;;;;;;45.00;38.00;;;;;26.95;54.62;98371.25;6237617;27;97291;-57
2022/08/18 02:43:27;;;;;;;;;32.80;30.00;;;;;26.74;54.83;98340.03;6239168;28;97395;-56
2022/08/18 02:46:30;;;;;;;;;39.00;34.25;;;;;26.90;54.63;98363.19;6240484;27;97271;-57
2022/08/18 02:49:36;;;;;;;;;36.60;30.60;;;;;26.41;54.44;98284.75;6239960;27;97092;-59
2022/08/18 02:52:40;;;;;;;;;39.00;34.00;;;;;26.84;54.67;98361.75;6238546;28;96968;-56
2022/08/18 02:55:43;;;;;;;;;39.00;33.00;;;;;26.83;54.59;98370.41;6253496;27;96695;-59
2022/08/18 02:58:49;;;;;;;;;24.40;22.40;;;;;26.78;54.42;98376.91;6239884;28;97021;-56
2022/08/18 03:01:55;;;;;;;;;38.40;34.00;;;;;26.77;54.70;98378.09;6241994;27;97029;-56
2022/08/18 03:04:58;;;;;;;;;42.40;35.00;;;;;26.78;54.88;98376.16;6239999;27;96733;-57
2022/08/18 03:08:02;;;;;;;;;39.00;35.00;;;;;26.76;54.88;98359.06;6239363;28;97114;-56
2022/08/18 03:11:05;;;;;;;;;43.60;36.00;;;;;26.74;54.91;98362.16;6244205;27;97027;-59
2022/08/18 03:14:11;;;;;;;;;44.00;36.00;;;;;26.77;55.60;98367.03;6237954;28;96923;-58
2022/08/18 03:17:14;;;;;;;;;53.00;43.80;;;;;26.78;56.25;98368.63;6238449;27;96761;-57
2022/08/18 03:20:18;;;;;;;;;45.00;38.25;;;;;26.82;56.87;98388.13;6238495;27;96776;-57
2022/08/18 03:23:33;;;;;;;;;45.50;38.00;;;;;26.79;57.60;98397.09;6249420;27;97010;-58
2022/08/18 03:26:41;;;;;;;;;45.00;37.25;;;;;26.60;57.29;98384.59;6244287;27;96945;-57
2022/08/18 03:29:46;;;;;;;;;49.00;40.60;;;;;26.68;57.68;98407.78;6237543;27;96946;-57
2022/08/18 03:32:49;;;;;;;;;47.00;39.00;;;;;26.66;57.50;98401.78;6235982;27;98040;-57
2022/08/18 03:35:53;;;;;;;;;44.60;38.00;;;;;26.65;57.09;98403.72;6235220;28;97095;-55
2022/08/18 03:38:56;;;;;;;;;45.00;38.00;;;;;26.61;57.35;98396.47;6236597;28;97072;-57
2022/08/18 03:42:00;;;;;;;;;36.50;33.00;;;;;26.63;57.13;98408.78;6237151;27;97475;-57
2022/08/18 03:45:07;;;;;;;;;39.80;34.40;;;;;26.63;57.26;98416.28;6237621;27;97834;-56
2022/08/18 03:48:20;;;;;;;;;42.25;36.00;;;;;26.62;57.42;98420.19;6250039;27;97607;-54
2022/08/18 03:51:26;;;;;;;;;44.00;38.00;;;;;26.61;57.79;98422.16;6262516;27;97466;-59
2022/08/18 03:54:32;;;;;;;;;17.75;15.75;;;;;26.53;57.72;98419.47;6256530;27;96951;-58
2022/08/18 03:57:37;;;;;;;;;48.80;40.80;;;;;26.61;57.77;98433.22;6236860;27;97124;-56
2022/08/18 04:01:00;;;;;;;;;42.50;36.00;;;;;26.60;57.81;98430.78;6239455;27;97481;-57
2022/08/18 04:04:08;;;;;;;;;51.00;42.40;;;;;26.61;57.89;98430.44;6257135;27;97276;-59
2022/08/18 04:07:16;;;;;;;;;41.20;35.80;;;;;26.62;57.80;98425.72;6263312;27;96752;-59
2022/08/18 04:10:20;;;;;;;;;45.60;37.60;;;;;26.65;57.84;98430.56;6245517;27;96998;-58
2022/08/18 04:13:23;;;;;;;;;47.00;39.80;;;;;26.65;58.04;98436.91;6244842;27;96694;-59
2022/08/18 04:16:31;;;;;;;;;50.00;41.00;;;;;26.66;57.98;98437.72;6250789;27;97823;-60
2022/08/18 04:19:34;;;;;;;;;44.50;38.00;;;;;26.69;58.13;98440.63;6262600;27;96504;-58
2022/08/18 04:22:37;;;;;;;;;45.50;38.00;;;;;26.71;57.91;98445.81;6248217;27;97121;-57
2022/08/18 04:25:41;;;;;;;;;45.00;37.00;;;;;26.75;57.72;98444.00;6218157;27;96618;-56
2022/08/18 04:28:44;;;;;;;;;40.00;35.00;;;;;26.67;57.74;98431.88;6235602;27;97367;-58
2022/08/18 04:31:50;;;;;;;;;41.00;35.00;;;;;26.83;57.34;98454.16;6235648;27;97420;-54
2022/08/18 04:34:54;;;;;;;;;38.00;31.60;;;;;26.88;57.41;98456.75;6237281;28;97468;-56
2022/08/18 04:38:00;;;;;;;;;43.80;36.00;;;;;26.93;57.47;98453.78;6240537;27;96414;-59
2022/08/18 04:41:03;;;;;;;;;44.00;36.25;;;;;26.99;57.31;98457.97;6236228;28;98715;-56
2022/08/18 04:44:08;;;;;;;;;40.25;34.00;;;;;27.04;57.01;98459.69;6241738;27;97717;-58
2022/08/18 04:47:13;;;;;;;;;45.00;36.00;;;;;27.08;57.22;98453.16;6243262;27;97761;-59
2022/08/18 04:50:16;;;;;;;;;39.50;34.75;;;;;27.14;56.44;98462.03;6242254;27;96707;-58
2022/08/18 04:56:41;;;;;;;;;37.60;33.20;;;;;27.31;56.33;98463.84;6236695;28;98172;-56
2022/08/18 04:59:47;;;;;;;;;45.60;36.40;;;;;27.37;55.74;98456.91;6249577;27;97431;-59
2022/08/18 05:02:53;;;;;;;;;39.60;34.00;;;;;27.48;55.76;98463.63;6235151;27;97960;-54
2022/08/18 05:05:58;;;;;;;;;44.40;38.00;;;;;27.53;55.31;98466.22;6231495;27;97997;-61
2022/08/18 05:09:06;;;;;;;;;35.00;31.50;;;;;27.59;55.35;98462.09;6244245;27;97495;-59
2022/08/18 05:12:13;;;;;;;;;37.00;32.20;;;;;27.54;54.92;98443.75;6233577;27;97040;-58
2022/08/18 05:15:17;;;;;;;;;39.00;33.50;;;;;27.73;54.42;98461.75;6216135;28;97424;-56
2022/08/18 05:18:24;;;;;;;;;36.00;31.75;;;;;27.73;54.32;98453.44;6212743;28;97164;-58
2022/08/18 05:21:28;;;;;;;;;44.00;37.00;;;;;27.88;54.18;98472.16;6212298;28;97582;-55
2022/08/18 05:24:34;;;;;;;;;39.00;33.00;;;;;27.92;53.82;98473.06;6226399;28;97484;-54
2022/08/18 05:27:43;;;;;;;;;37.00;33.00;;;;;27.98;54.08;98466.16;6224279;27;96812;-56
2022/08/18 05:30:46;;;;;;;;;38.20;33.00;;;;;27.95;53.61;98450.25;6228610;27;98011;-56
2022/08/18 05:33:51;;;;;;;;;36.00;32.00;;;;;28.17;53.90;98477.50;6236648;27;96948;-58
2022/08/18 05:37:08;;;;;;;;;36.25;32.25;;;;;28.28;53.74;98473.13;6236541;28;98918;-59
2022/08/18 05:40:14;;;;;;;;;38.80;34.20;;;;;28.37;52.69;98470.22;6237538;28;97446;-60
2022/08/18 05:43:18;;;;;;;;;40.50;34.50;;;;;28.46;53.10;98481.16;6255082;27;96557;-58
2022/08/18 05:46:31;;;;;;;;;38.40;33.00;;;;;28.56;52.99;98483.47;6227739;28;96868;-56
2022/08/18 05:49:37;;;;;;;;;39.60;34.60;;;;;28.52;52.72;98469.50;6240724;28;97508;-57
2022/08/18 05:52:55;;;;;;;;;40.80;35.20;;;;;28.77;52.16;98476.63;6238893;28;97434;-53
2022/08/18 05:59:27;;;;;;;;;32.60;30.20;;;;;28.95;52.21;98488.25;6216209;28;96806;-55
2022/08/18 06:02:35;;;;;;;;;33.60;31.80;;;;;28.92;51.31;98464.00;6233328;28;97289;-59
2022/08/18 06:05:49;;;;;;;;;38.40;33.00;;;;;29.16;51.97;98485.28;6233656;28;96737;-62
2022/08/18 06:08:58;;;;;;;;;29.80;25.80;;;;;29.30;51.54;98474.56;6227252;28;97162;-57
2022/08/18 06:12:12;;;;;;;;;40.00;35.00;;;;;29.32;50.97;98460.38;6215902;28;96726;-58
2022/08/18 06:15:20;;;;;;;;;35.60;32.60;;;;;29.60;50.74;98475.81;6235040;28;97386;-54
2022/08/18 06:18:37;;;;;;;;;38.50;32.50;;;;;29.79;50.26;98477.09;6241128;27;97401;-56
2022/08/18 06:21:52;;;;;;;;;38.80;33.80;;;;;29.96;49.26;98473.97;6240674;28;96958;-61
2022/08/18 06:25:06;;;;;;;;;34.20;32.00;;;;;30.12;49.00;98481.13;6240650;28;97111;-56
2022/08/18 06:28:14;;;;;;;;;38.00;34.00;;;;;30.18;48.41;98483.63;6226244;28;98149;-56
2022/08/18 06:31:23;;;;;;;;;31.75;30.00;;;;;30.16;48.44;98477.63;6236573;28;97516;-55
2022/08/18 06:34:41;;;;;;;;;35.00;32.00;;;;;30.31;49.06;98488.72;6238536;28;96869;-56
2022/08/18 06:41:20;;;;;;;;;34.60;31.20;;;;;30.45;48.07;98491.03;6230609;28;98578;-58
2022/08/18 06:44:49;;;;;;;;;34.00;30.40;;;;;30.53;48.11;98493.66;6234280;28;97396;-56
2022/08/18 06:48:05;;;;;;;;;33.60;30.00;;;;;30.62;48.39;98489.88;6216799;28;98452;-60
2022/08/18 06:51:20;;;;;;;;;40.00;34.60;;;;;30.73;48.07;98502.03;6233873;27;98090;-58
2022/08/18 06:54:30;;;;;;;;;37.00;33.00;;;;;30.84;48.24;98508.63;6236758;28;97064;-57
2022/08/18 06:57:36;;;;;;;;;36.00;33.00;;;;;31.00;47.26;98512.16;6238384;27;97055;-58
2022/08/18 07:00:46;;;;;;;;;36.00;32.20;;;;;31.14;46.56;98503.34;6235158;27;97927;-61
2022/08/18 07:03:55;;;;;;;;;31.00;30.00;;;;;31.22;46.21;98519.03;6248168;27;97529;-56
2022/08/18 07:06:59;;;;;;;;;34.00;31.60;;;;;31.31;46.47;98514.84;6242388;27;97414;-60
2022/08/18 07:10:07;;;;;;;;;34.60;31.20;;;;;31.46;46.13;98509.56;6242757;27;96656;-59
2022/08/18 07:13:19;;;;;;;;;30.00;29.00;;;;;31.64;45.93;98505.16;6244458;27;97736;-58
2022/08/18 07:16:31;;;;;;;;;34.40;31.00;;;;;31.87;45.92;98510.72;6235090;27;96906;-58
2022/08/18 07:20:00;;;;;;;;;30.20;29.00;;;;;32.13;45.10;98516.41;6238825;27;98026;-57
2022/08/18 07:23:05;;;;;;;;;36.00;33.00;;;;;32.35;44.48;98511.97;6237329;27;98631;-55
2022/08/18 07:26:15;;;;;;;;;31.00;30.00;;;;;32.50;43.69;98509.00;6233462;28;97986;-55
2022/08/18 07:29:18;;;;;;;;;34.00;31.60;;;;;32.65;43.61;98507.25;6230817;28;97665;-61
2022/08/18 07:32:25;;;;;;;;;33.60;30.00;;;;;32.69;43.11;98507.34;6232586;28;96889;-59
2022/08/18 07:35:36;;;;;;;;;35.00;31.00;;;;;32.84;42.77;98517.53;6229432;27;97420;-59
2022/08/18 07:38:48;;;;;;;;;34.00;31.00;;;;;32.97;43.29;98514.13;6219838;28;97039;-57
2022/08/18 07:42:03;;;;;;;;;28.40;27.00;;;;;33.16;43.23;98515.16;6235749;28;97266;-56
2022/08/18 07:45:15;;;;;;;;;29.00;28.00;;;;;33.33;42.22;98507.00;6238170;27;96992;-59
2022/08/18 07:48:25;;;;;;;;;27.00;25.00;;;;;33.49;42.26;98509.56;6238359;28;96463;-58
2022/08/18 07:51:46;;;;;;;;;27.00;26.40;;;;;33.71;41.88;98499.47;6238510;28;96847;-54
2022/08/18 07:55:05;;;;;;;;;26.00;24.80;;;;;33.86;40.86;98490.03;6236123;27;97486;-54
2022/08/18 07:58:24;;;;;;;;;29.60;27.60;;;;;34.10;41.05;98489.44;6235331;28;96947;-58
2022/08/18 08:01:36;;;;;;;;;30.40;29.40;;;;;34.28;40.62;98487.59;6235930;27;97377;-56
2022/08/18 08:04:46;;;;;;;;;27.00;26.25;;;;;34.44;40.66;98494.91;6235041;27;96430;-55
2022/08/18 08:07:57;;;;;;;;;19.00;16.00;;;;;34.60;39.67;98489.81;6235002;27;96685;-57
2022/08/18 08:11:10;;;;;;;;;27.00;26.80;;;;;34.65;39.19;98489.47;6234247;28;97512;-59
2022/08/18 08:14:35;;;;;;;;;25.00;24.60;;;;;34.74;39.23;98489.94;6235690;28;97357;-58
2022/08/18 08:17:48;;;;;;;;;27.50;25.50;;;;;34.89;39.59;98488.00;6235673;28;96584;-58
2022/08/18 08:20:56;;;;;;;;;26.50;24.00;;;;;35.04;38.85;98496.06;6235152;28;97852;-61
2022/08/18 08:24:13;;;;;;;;;27.00;26.00;;;;;35.17;38.90;98482.56;6236478;27;97037;-61
2022/08/18 08:27:24;;;;;;;;;31.80;29.40;;;;;35.33;38.05;98490.63;6234167;28;97102;-58
2022/08/18 08:30:33;;;;;;;;;28.60;27.20;;;;;35.43;37.90;98492.66;6232652;28;99369;-59
2022/08/18 08:33:43;;;;;;;;;27.50;26.50;;;;;35.48;37.42;98484.63;6235429;28;97553;-57
2022/08/18 08:36:48;;;;;;;;;29.40;28.40;;;;;35.48;37.38;98479.03;6231174;28;98428;-58
2022/08/18 08:39:57;;;;;;;;;31.40;28.00;;;;;35.72;37.63;98488.75;6234303;28;96871;-57
2022/08/18 08:43:04;;;;;;;;;29.00;25.20;;;;;35.84;37.10;98479.13;6237022;28;97193;-63
2022/08/18 08:46:13;;;;;;;;;26.60;26.00;;;;;35.99;36.97;98477.94;6230950;28;98066;-55
2022/08/18 08:49:29;;;;;;;;;27.00;26.50;;;;;36.06;35.78;98483.56;6233970;28;97522;-56
2022/08/18 08:52:40;;;;;;;;;25.60;23.20;;;;;36.08;34.26;98483.13;6233868;28;98105;-61
2022/08/18 08:55:48;;;;;;;;;21.60;20.60;;;;;36.13;33.86;98493.97;6235686;27;97465;-58
2022/08/18 08:58:57;;;;;;;;;23.25;22.00;;;;;36.08;33.42;98477.53;6233233;28;97461;-57
2022/08/18 09:02:28;;;;;;;;;22.40;20.40;;;;;36.31;34.37;98501.19;6234785;27;96779;-57
2022/08/18 09:06:00;;;;;;;;;23.50;22.00;;;;;36.44;34.06;98498.81;6234499;27;97410;-56
2022/08/18 09:09:22;;;;;;;;;23.20;22.20;;;;;36.65;34.26;98510.03;6234436;28;97452;-57
2022/08/18 09:12:40;;;;;;;;;21.60;21.00;;;;;36.84;33.63;98503.97;6235494;28;97476;-59
2022/08/18 09:16:04;;;;;;;;;25.20;23.20;;;;;36.98;32.68;98510.75;6235242;27;98644;-60
2022/08/18 09:19:33;;;;;;;;;22.80;21.80;;;;;36.98;33.11;98516.38;6235110;28;96721;-56
2022/08/18 09:22:47;;;;;;;;;20.00;19.60;;;;;36.96;32.03;98508.31;6233101;27;97284;-63
2022/08/18 09:25:53;;;;;;;;;25.60;23.00;;;;;36.95;32.39;98503.91;6235660;28;97318;-60
2022/08/18 09:29:00;;;;;;;;;21.50;20.50;;;;;36.85;32.51;98493.50;6235247;27;97921;-60
2022/08/18 09:32:38;;;;;;;;;23.00;21.00;;;;;36.90;31.62;98507.94;6227318;27;96965;-59
2022/08/18 09:36:20;;;;;;;;;20.60;19.60;;;;;36.84;32.12;98509.59;6224173;27;97507;-63
2022/08/18 09:43:13;;;;;;;;;21.20;21.00;;;;;36.93;31.81;98502.72;6211624;28;97979;-58
2022/08/18 09:46:50;;;;;;;;;22.00;20.50;;;;;36.97;32.10;98512.75;6211497;28;97086;-62
2022/08/18 09:49:55;;;;;;;;;21.00;21.00;;;;;37.02;31.71;98498.28;6211635;28;97534;-60
2022/08/18 09:53:18;;;;;;;;;18.60;18.00;;;;;37.31;31.89;98515.84;6232856;28;96910;-57
2022/08/18 09:57:06;;;;;;;;;21.40;21.00;;;;;37.37;30.60;98513.44;6234343;28;97004;-58
2022/08/18 10:00:28;;;;;;;;;18.20;17.20;;;;;37.49;30.73;98505.31;6233398;28;97452;-56
2022/08/18 10:03:35;;;;;;;;;19.00;18.00;;;;;37.66;30.45;98510.06;6234590;28;97267;-58
2022/08/18 10:06:39;;;;;;;;;20.00;19.00;;;;;37.85;30.40;98514.38;6231222;28;97221;-56
2022/08/18 10:10:02;;;;;;;;;21.40;19.40;;;;;38.07;29.36;98512.25;6234183;28;97619;-57
2022/08/18 10:13:33;;;;;;;;;21.00;20.00;;;;;38.22;29.34;98519.34;6233377;28;97350;-57
2022/08/18 10:16:48;;;;;;;;;18.67;17.00;;;;;38.38;28.53;98513.16;6232137;28;96919;-54
2022/08/18 10:20:27;;;;;;;;;19.00;17.50;;;;;38.58;28.94;98514.22;6234071;28;96592;-59
2022/08/18 10:23:50;;;;;;;;;20.40;17.60;;;;;38.67;28.08;98510.91;6234454;27;97376;-60
2022/08/18 10:27:45;;;;;;;;;16.25;16.25;;;;;38.81;28.60;98488.19;6234013;28;97622;-61
2022/08/18 10:31:11;;;;;;;;;19.25;18.50;;;;;38.90;28.28;98491.38;6236524;28;96454;-59
2022/08/18 10:34:39;;;;;;;;;19.00;17.00;;;;;38.96;28.07;98492.50;6237362;28;98136;-55
2022/08/18 10:38:10;;;;;;;;;12.60;12.60;;;;;38.83;26.90;98491.41;6235418;28;97523;-59
2022/08/18 10:41:26;;;;;;;;;16.00;15.25;;;;;38.58;27.19;98488.88;6239483;28;97437;-58
2022/08/18 10:44:40;;;;;;;;;20.00;18.00;;;;;38.33;28.26;98477.81;6239883;28;96981;-59
2022/08/18 10:47:44;;;;;;;;;20.00;19.00;;;;;38.34;28.37;98476.59;6239714;27;96983;-60
2022/08/18 10:50:58;;;;;;;;;18.00;18.00;;;;;38.42;28.35;98472.50;6237741;28;99651;-58
2022/08/18 10:54:10;;;;;;;;;18.75;17.00;;;;;38.46;28.26;98461.25;6254813;27;99464;-59
2022/08/18 10:57:32;;;;;;;;;19.60;18.00;;;;;38.50;28.39;98464.81;6239741;27;97126;-54
2022/08/18 11:00:48;;;;;;;;;21.00;18.60;;;;;38.56;29.27;98458.28;6239577;28;96608;-58
2022/08/18 11:04:08;;;;;;;;;18.00;17.00;;;;;38.65;28.77;98452.19;6240137;28;97065;-58
2022/08/18 11:07:31;;;;;;;;;17.00;15.75;;;;;38.54;27.07;98460.75;6239352;28;96949;-57
2022/08/18 11:10:39;;;;;;;;;17.00;16.00;;;;;38.30;27.35;98452.50;6239717;28;97213;-56
2022/08/18 11:14:14;;;;;;;;;19.00;18.40;;;;;38.19;27.55;98457.44;6239654;28;97082;-56
2022/08/18 11:17:33;;;;;;;;;17.00;16.40;;;;;38.11;28.87;98453.91;6239392;28;97530;-57
2022/08/18 11:20:38;;;;;;;;;14.60;14.60;;;;;38.23;28.92;98453.38;6239436;28;97003;-55
2022/08/18 11:23:45;;;;;;;;;20.00;18.00;;;;;38.32;27.83;98458.50;6238902;28;97369;-59
2022/08/18 11:26:50;;;;;;;;;16.40;16.00;;;;;38.38;27.61;98456.84;6238647;27;98155;-53
2022/08/18 11:29:59;;;;;;;;;15.20;15.20;;;;;38.55;27.13;98459.53;6239196;28;96772;-57
2022/08/18 11:33:05;;;;;;;;;18.00;17.00;;;;;38.57;27.44;98448.63;6239646;27;97429;-58
2022/08/18 11:36:09;;;;;;;;;14.80;13.80;;;;;38.55;27.79;98447.47;6238978;28;97019;-57
2022/08/18 11:39:13;;;;;;;;;17.00;17.00;;;;;38.54;27.18;98438.22;6238535;27;97436;-63
2022/08/18 11:42:19;;;;;;;;;17.75;17.00;;;;;38.57;27.34;98426.09;6238540;27;96521;-60
2022/08/18 11:45:32;;;;;;;;;16.40;16.00;;;;;38.56;26.79;98407.56;6239133;28;97410;-58
2022/08/18 11:48:43;;;;;;;;;17.60;16.60;;;;;38.41;26.70;98414.59;6239419;28;97515;-61
2022/08/18 11:51:57;;;;;;;;;17.75;16.75;;;;;38.38;28.74;98423.06;6238005;28;97468;-57
2022/08/18 11:55:18;;;;;;;;;16.20;16.00;;;;;38.43;27.77;98419.78;6237947;28;97506;-58
2022/08/18 11:58:38;;;;;;;;;18.00;17.60;;;;;38.41;27.87;98410.97;6237383;27;97339;-60
2022/08/18 12:01:49;;;;;;;;;18.20;15.40;;;;;38.38;28.21;98406.97;6230920;28;97470;-58
2022/08/18 12:05:02;;;;;;;;;16.00;15.00;;;;;38.33;26.96;98410.22;6238256;27;97063;-60
2022/08/18 12:08:28;;;;;;;;;14.00;13.00;;;;;38.19;27.11;98403.94;6220123;28;97139;-55
2022/08/18 12:11:55;;;;;;;;;17.75;17.00;;;;;38.10;27.65;98405.25;6221722;28;96990;-61
2022/08/18 12:15:05;;;;;;;;;17.00;15.00;;;;;38.03;26.72;98398.88;6238370;28;98012;-56
2022/08/18 12:18:19;;;;;;;;;17.20;16.00;;;;;37.92;27.70;98386.91;6238225;28;97566;-61
2022/08/18 12:21:33;;;;;;;;;16.00;15.50;;;;;37.82;27.68;98377.34;6238167;27;97381;-55
2022/08/18 12:24:38;;;;;;;;;16.00;16.00;;;;;37.84;28.03;98382.53;6238165;28;96653;-54
2022/08/18 12:27:42;;;;;;;;;16.00;16.00;;;;;37.90;27.74;98383.69;6236727;28;96558;-57
2022/08/18 12:30:46;;;;;;;;;19.20;18.00;;;;;38.01;28.72;98373.97;6237376;27;97145;-58
2022/08/18 12:33:58;;;;;;;;;18.00;18.00;;;;;38.08;27.84;98370.25;6238192;28;97525;-58
2022/08/18 12:37:09;;;;;;;;;17.00;16.50;;;;;38.04;27.71;98359.06;6232693;27;98110;-55
2022/08/18 12:40:32;;;;;;;;;16.40;15.60;;;;;38.13;27.76;98355.75;6236850;28;97516;-57
2022/08/18 12:43:36;;;;;;;;;14.00;14.00;;;;;38.27;26.64;98361.22;6233174;27;97036;-58
2022/08/18 12:46:40;;;;;;;;;14.75;14.00;;;;;38.37;26.46;98359.50;6236143;28;96915;-55
2022/08/18 12:49:45;;;;;;;;;15.00;14.00;;;;;38.41;26.55;98349.81;6229427;27;96976;-62
2022/08/18 12:52:54;;;;;;;;;15.20;14.20;;;;;38.37;26.86;98357.47;6237366;27;96406;-63
2022/08/18 12:55:58;;;;;;;;;18.00;18.00;;;;;38.32;26.91;98352.31;6238046;27;97637;-57
2022/08/18 12:59:04;;;;;;;;;18.25;17.00;;;;;38.21;27.00;98351.66;6236844;28;96642;-58
2022/08/18 13:02:10;;;;;;;;;16.00;15.00;;;;;38.21;27.51;98357.28;6236448;27;97497;-57
2022/08/18 13:05:14;;;;;;;;;15.60;15.60;;;;;38.22;26.96;98361.66;6233844;27;96989;-57
2022/08/18 13:08:21;;;;;;;;;17.00;16.00;;;;;38.18;26.32;98358.09;6232629;28;97433;-60
2022/08/18 13:11:35;;;;;;;;;18.00;17.00;;;;;38.05;26.92;98340.94;6232906;28;97829;-54
2022/08/18 13:14:38;;;;;;;;;17.00;16.00;;;;;38.03;27.35;98351.00;6237799;27;97346;-58
2022/08/18 13:17:46;;;;;;;;;17.00;15.20;;;;;37.99;28.03;98345.44;6236352;27;97440;-59
2022/08/18 13:20:50;;;;;;;;;16.60;15.40;;;;;38.05;27.60;98355.03;6238029;27;97545;-56
2022/08/18 13:23:55;;;;;;;;;16.00;16.00;;;;;38.14;27.67;98365.78;6241071;27;98177;-56
2022/08/18 13:27:03;;;;;;;;;17.20;16.00;;;;;38.14;27.12;98351.72;6237099;27;97658;-62
2022/08/18 13:30:20;;;;;;;;;15.80;15.80;;;;;38.08;27.08;98353.38;6234949;27;97421;-61
2022/08/18 13:33:34;;;;;;;;;17.00;16.00;;;;;38.01;27.38;98361.91;6234734;27;98223;-58
2022/08/18 13:36:57;;;;;;;;;18.33;17.33;;;;;37.95;26.83;98361.53;6245281;27;98839;-58
2022/08/18 13:40:04;;;;;;;;;17.00;15.00;;;;;37.84;26.96;98366.44;6228667;27;97283;-60
2022/08/18 13:43:10;;;;;;;;;16.60;16.00;;;;;37.73;27.23;98372.16;6240733;27;97139;-60
2022/08/18 13:46:18;;;;;;;;;17.40;16.00;;;;;37.63;27.55;98370.22;6243412;27;97141;-57
2022/08/18 13:49:33;;;;;;;;;19.00;18.00;;;;;37.48;27.83;98365.94;6239468;27;97515;-57
2022/08/18 13:52:39;;;;;;;;;19.00;18.00;;;;;37.45;27.78;98372.38;6230185;28;97443;-61
2022/08/18 13:55:48;;;;;;;;;16.60;15.40;;;;;37.33;28.12;98367.25;6233797;28;96826;-59
2022/08/18 13:58:54;;;;;;;;;17.40;17.00;;;;;37.39;28.16;98381.66;6232320;27;97689;-57
2022/08/18 14:01:58;;;;;;;;;17.00;16.00;;;;;37.43;28.28;98374.00;6235536;27;96877;-59
2022/08/18 14:05:02;;;;;;;;;17.00;15.40;;;;;37.48;28.75;98368.75;6240680;28;96542;-58
2022/08/18 14:08:08;;;;;;;;;17.00;16.40;;;;;37.45;27.57;98378.00;6239115;28;97543;-61
2022/08/18 14:11:13;;;;;;;;;13.40;13.40;;;;;37.40;27.75;98392.47;6240677;27;97080;-58
2022/08/18 14:14:19;;;;;;;;;17.00;16.80;;;;;37.45;28.50;98377.19;6239507;28;97520;-54
2022/08/18 14:17:24;;;;;;;;;16.00;16.00;;;;;37.54;28.55;98380.34;6237333;28;96681;-59
2022/08/18 14:27:18;;;;;;;;;16.00;16.00;;;;;37.61;26.95;98383.13;6242317;27;97853;-59
2022/08/18 14:30:22;;;;;;;;;17.00;15.60;;;;;37.61;28.35;98383.13;6233999;27;98331;-60
2022/08/18 14:33:28;;;;;;;;;13.50;12.50;;;;;37.61;28.37;98386.75;6235868;27;97783;-61
2022/08/18 14:36:52;;;;;;;;;13.00;12.00;;;;;37.52;27.55;98382.78;6235011;27;97285;-57
2022/08/18 14:39:58;;;;;;;;;18.80;18.00;;;;;37.47;28.60;98380.41;6234597;27;96889;-56
2022/08/18 14:43:03;;;;;;;;;20.00;18.00;;;;;37.45;28.62;98369.56;6234689;27;97337;-56
2022/08/18 14:46:10;;;;;;;;;16.00;16.00;;;;;37.48;28.42;98374.38;6231208;28;96645;-59
2022/08/18 14:49:13;;;;;;;;;13.00;13.00;;;;;37.46;28.53;98371.16;6229728;27;97425;-61
2022/08/18 14:52:30;;;;;;;;;16.00;16.00;;;;;37.37;28.09;98353.16;6226934;28;97369;-59
2022/08/18 14:55:34;;;;;;;;;20.00;18.00;;;;;37.26;28.58;98356.03;6226044;27;97029;-60
2022/08/18 14:58:40;;;;;;;;;17.00;15.00;;;;;37.14;28.49;98353.72;6235090;27;97492;-58
2022/08/18 15:01:44;;;;;;;;;17.40;16.40;;;;;37.05;28.70;98344.88;6228217;28;97427;-60